Aérodrome :
LOGIN :

S'inscrire | Disclaimer

   EN    FR    IT 

 










Légende :    VFR   VFR Marginal   IFR   IFR Intensif   IFR Très Intensif
Visi : 
Plafond : 
>= 8 km
>= 3000ft
5 à 8 km
1000 à 3000 ft
1500m à 5 km
500 à 1000 ft
800 à 1500m
200 à 500 ft
< 800m
< 200 ft
Symboles :   Orages  Brouillard  Fortes neiges  Fortes précipitations  Vent > 20 kt
SIGMETs :   Divers  Orages  Givrage  Turbulence  Onde Orograph.  Cendres Volcan.






- Altitude de l'aérodrome : 978 ft
- Code IATA : LNZ


LOWL - Linz

DERNIER METAR :
  • 060520Z VRB01KT 3000 BR VV003 M03/M03 Q1023 TEMPO 2000 VV002

METARs EXPIRÉS :
  • 060450Z 07003KT 040V100 2400 BR VV003 M02/M03 Q1022 TEMPO 3000 VV002
  • 060420Z VRB01KT 3200 BR BKN003 M02/M03 Q1022 TEMPO 1200 FZBCFG VV002
  • 060350Z AUTO VRB02KT 3900 BR FEW002 BKN003 M02/M03 Q1022
  • 060320Z AUTO VRB02KT 3700 BR BKN003 M02/M03 Q1023
  • 060250Z AUTO 29004KT 3600 BR BKN003 M02/M03 Q1023

TAF TAF LOWL
Valide du 06 à 06h jusqu'au 07 à 06h UTC


060515Z 0606/0706 VRB02KT 2500 BR OVC002 TX00/0706Z TNM02/0606Z
BECMG 0606/0609 10006KT 6000 NSW BKN006
TEMPO 0616/0624 2000 BR OVC004
PROB40 0618/0701 VRB02KT 0700 FZFG VV001
BECMG 0700/0703 26005KT 8000 SCT010 BKN025
PROB40
TEMPO 0702/0706 3000 -FZRA BKN004



MET'MAP, la Météo Aéronautique d'un coup d'oeil ! - Copyright ORBIFLY Décembre 2007 - Disclaimer

ORBIFLY MET'MAP TEAM :

Programmation & Développement : Alexandra Zaïnal
Sur une idée originale de : Baudouin d'Aumeries
Assistance à la programmation : Marc-Olivier Méhu
Soutien technique & logistique : Manuel Goepfert

Contact : metmap@orbifly.com




SOURCES & CREDITS :

   NOAA